Time;durP1;ratioP1;P1;durP2;ratioP2;P2;SDS_P1;SDS_P2;PMS_P1;PMS_P2;Temp;Humidity;BMP_temperature;BMP_pressure;BME280_temperature;BME280_humidity;BME280_pressure;Samples;Min_cycle;Max_cycle;Signal;HPM_P1;HPM_P2
2020/12/05 00:01:04;;;;;;;8.55;6.68;;;;;;;;;;5080313;28;20196;-88
2020/12/05 00:03:31;;;;;;;11.50;8.05;;;;;;;;;;5079390;28;20182;-89
2020/12/05 00:05:59;;;;;;;10.77;7.13;;;;;;;;;;5080012;28;20285;-90
2020/12/05 00:08:26;;;;;;;10.30;7.28;;;;;;;;;;5080096;28;20217;-92
2020/12/05 00:10:53;;;;;;;12.68;8.13;;;;;;;;;;5080642;28;20193;-92
2020/12/05 00:13:20;;;;;;;9.57;7.18;;;;;;;;;;5079272;28;20296;-88
2020/12/05 00:15:46;;;;;;;8.45;6.47;;;;;;;;;;5079958;28;20182;-88
2020/12/05 00:18:13;;;;;;;12.68;7.93;;;;;;;;;;5079566;28;20191;-86
2020/12/05 00:20:40;;;;;;;9.48;7.65;;;;;;;;;;5079471;28;20185;-87
2020/12/05 00:23:08;;;;;;;12.90;7.50;;;;;;;;;;5079191;28;20185;-88
2020/12/05 00:25:35;;;;;;;11.50;8.27;;;;;;;;;;5079351;28;20209;-89
2020/12/05 00:28:02;;;;;;;10.88;7.85;;;;;;;;;;5079681;28;20493;-88
2020/12/05 00:30:29;;;;;;;10.05;7.47;;;;;;;;;;5079812;28;20444;-89
2020/12/05 00:33:00;;;;;;;13.10;9.13;;;;;;;;;;5078363;28;20221;-87
2020/12/05 00:35:27;;;;;;;11.15;7.80;;;;;;;;;;5079748;28;20200;-90
2020/12/05 00:37:54;;;;;;;12.07;8.30;;;;;;;;;;5079552;28;20197;-89
2020/12/05 00:40:23;;;;;;;9.55;8.23;;;;;;;;;;5079177;28;20205;-86
2020/12/05 00:42:50;;;;;;;9.32;7.70;;;;;;;;;;5078921;28;20177;-91
2020/12/05 00:45:17;;;;;;;12.32;8.45;;;;;;;;;;5079327;28;20220;-85
2020/12/05 00:47:44;;;;;;;10.45;7.18;;;;;;;;;;5079051;28;20535;-86
2020/12/05 00:50:11;;;;;;;11.15;7.38;;;;;;;;;;5078964;28;20196;-87
2020/12/05 00:52:38;;;;;;;9.95;7.55;;;;;;;;;;5077844;28;20205;-87
2020/12/05 00:55:05;;;;;;;9.57;7.18;;;;;;;;;;5078838;28;20196;-88
2020/12/05 00:57:35;;;;;;;9.57;6.72;;;;;;;;;;5079010;28;20193;-86
2020/12/05 01:00:03;;;;;;;9.00;7.18;;;;;;;;;;5078933;28;20177;-88
2020/12/05 01:02:30;;;;;;;9.82;7.38;;;;;;;;;;5078127;28;20186;-87
2020/12/05 01:04:57;;;;;;;9.63;7.22;;;;;;;;;;5078749;28;20201;-87
2020/12/05 01:07:25;;;;;;;7.45;6.32;;;;;;;;;;5078655;28;20203;-87
2020/12/05 01:09:52;;;;;;;11.68;7.97;;;;;;;;;;5079931;28;20838;-87
2020/12/05 01:12:19;;;;;;;9.80;6.93;;;;;;;;;;5079211;28;20192;-87
2020/12/05 01:14:47;;;;;;;10.52;7.60;;;;;;;;;;5080481;28;20209;-85
2020/12/05 01:17:15;;;;;;;9.10;7.15;;;;;;;;;;5075122;28;20473;-86
2020/12/05 01:19:41;;;;;;;10.48;7.25;;;;;;;;;;5077743;28;20189;-89
2020/12/05 01:22:08;;;;;;;11.13;7.38;;;;;;;;;;5076638;28;20189;-90
2020/12/05 01:24:35;;;;;;;11.27;7.97;;;;;;;;;;5069723;28;20490;-89
2020/12/05 01:27:02;;;;;;;13.43;7.82;;;;;;;;;;5081230;28;20221;-88
2020/12/05 01:29:31;;;;;;;10.07;7.72;;;;;;;;;;5078911;28;20193;-89
2020/12/05 01:32:07;;;;;;;12.50;8.10;;;;;;;;;;5081044;28;20262;-93
2020/12/05 01:34:34;;;;;;;10.50;7.63;;;;;;;;;;5081612;28;20616;-88
2020/12/05 01:37:01;;;;;;;12.25;8.20;;;;;;;;;;5073958;28;20264;-91
2020/12/05 01:39:28;;;;;;;10.95;8.43;;;;;;;;;;5078696;28;20212;-91
2020/12/05 01:41:55;;;;;;;14.15;9.15;;;;;;;;;;5078790;28;20482;-92
2020/12/05 01:44:22;;;;;;;12.52;10.80;;;;;;;;;;5079161;28;20188;-93
2020/12/05 01:46:49;;;;;;;13.82;8.60;;;;;;;;;;5078560;28;20595;-92
2020/12/05 01:49:19;;;;;;;14.68;9.70;;;;;;;;;;5078876;28;20448;-90
2020/12/05 01:51:46;;;;;;;13.25;10.00;;;;;;;;;;5078781;28;20187;-92
2020/12/05 01:54:13;;;;;;;11.90;8.90;;;;;;;;;;5078498;28;20310;-89
2020/12/05 01:56:44;;;;;;;12.38;9.77;;;;;;;;;;5078574;28;20243;-88
2020/12/05 01:59:11;;;;;;;11.30;9.07;;;;;;;;;;5078510;28;20189;-87
2020/12/05 02:01:40;;;;;;;12.63;9.05;;;;;;;;;;5078225;28;20207;-88
2020/12/05 02:04:07;;;;;;;10.45;8.23;;;;;;;;;;5078250;28;20209;-89
2020/12/05 02:06:52;;;;;;;11.98;8.32;;;;;;;;;;5078087;28;20543;-89
2020/12/05 02:09:22;;;;;;;10.27;8.38;;;;;;;;;;5078300;28;20188;-88
2020/12/05 02:12:04;;;;;;;12.52;8.70;;;;;;;;;;5078022;28;20181;-88
2020/12/05 02:14:32;;;;;;;12.00;9.55;;;;;;;;;;5078175;28;20219;-89
2020/12/05 02:17:04;;;;;;;12.77;9.32;;;;;;;;;;5078329;28;20191;-89
2020/12/05 02:19:50;;;;;;;13.57;9.05;;;;;;;;;;5077925;28;20347;-89
2020/12/05 02:22:23;;;;;;;14.23;9.40;;;;;;;;;;5078179;28;20181;-89
2020/12/05 02:24:51;;;;;;;10.75;8.80;;;;;;;;;;5078202;28;20192;-88
2020/12/05 02:27:18;;;;;;;10.90;8.55;;;;;;;;;;5078150;28;20221;-89
2020/12/05 02:29:45;;;;;;;9.45;7.63;;;;;;;;;;5077875;28;20195;-88
2020/12/05 02:32:12;;;;;;;9.85;7.60;;;;;;;;;;5078038;28;20568;-87
2020/12/05 02:34:40;;;;;;;11.20;8.60;;;;;;;;;;5077756;28;20215;-89
2020/12/05 02:37:12;;;;;;;12.88;9.15;;;;;;;;;;5077725;28;20485;-88
2020/12/05 02:39:41;;;;;;;11.63;9.13;;;;;;;;;;5077882;28;20186;-87
2020/12/05 02:42:12;;;;;;;10.63;8.50;;;;;;;;;;5077924;28;20196;-89
2020/12/05 02:44:46;;;;;;;14.30;10.10;;;;;;;;;;5078007;28;20468;-88
2020/12/05 02:47:13;;;;;;;14.30;9.40;;;;;;;;;;5038067;28;20457;-88
2020/12/05 02:49:40;;;;;;;13.70;10.73;;;;;;;;;;5038044;28;20201;-88
2020/12/05 02:52:07;;;;;;;14.15;10.25;;;;;;;;;;5037953;28;20301;-89
2020/12/05 02:54:34;;;;;;;17.42;12.32;;;;;;;;;;5037772;28;20228;-87
2020/12/05 02:57:02;;;;;;;17.13;11.10;;;;;;;;;;5037828;28;20318;-89
2020/12/05 02:59:31;;;;;;;13.88;10.02;;;;;;;;;;5037735;28;20221;-89
2020/12/05 03:01:59;;;;;;;10.98;9.52;;;;;;;;;;5037537;28;20224;-88
2020/12/05 03:04:26;;;;;;;16.15;11.15;;;;;;;;;;5037656;28;20185;-90
2020/12/05 03:06:53;;;;;;;13.05;9.13;;;;;;;;;;5037869;28;20197;-88
2020/12/05 03:09:20;;;;;;;14.80;9.88;;;;;;;;;;5037634;28;20198;-89
2020/12/05 03:11:47;;;;;;;13.55;10.88;;;;;;;;;;5037540;28;20428;-89
2020/12/05 03:14:14;;;;;;;13.73;11.27;;;;;;;;;;5037452;28;20229;-89
2020/12/05 03:16:42;;;;;;;12.13;9.35;;;;;;;;;;5041061;28;20222;-89
2020/12/05 03:19:09;;;;;;;14.68;10.55;;;;;;;;;;5041453;28;20551;-88
2020/12/05 03:21:36;;;;;;;13.35;10.90;;;;;;;;;;5041143;28;20203;-88
2020/12/05 03:24:03;;;;;;;16.52;11.27;;;;;;;;;;5041097;28;20197;-90
2020/12/05 03:26:30;;;;;;;13.38;10.93;;;;;;;;;;5041302;28;20211;-90
2020/12/05 03:28:57;;;;;;;13.02;9.90;;;;;;;;;;5041184;28;20197;-90
2020/12/05 03:31:36;;;;;;;12.85;9.88;;;;;;;;;;5041126;28;20285;-90
2020/12/05 03:34:05;;;;;;;13.73;11.00;;;;;;;;;;5041381;28;20511;-88
2020/12/05 03:36:32;;;;;;;17.67;11.60;;;;;;;;;;5041152;28;20214;-88
2020/12/05 03:38:59;;;;;;;15.10;11.02;;;;;;;;;;5041060;28;20175;-90
2020/12/05 03:41:26;;;;;;;11.35;9.45;;;;;;;;;;5040885;28;20185;-87
2020/12/05 03:43:53;;;;;;;15.30;10.63;;;;;;;;;;5040968;28;20273;-89
2020/12/05 03:46:20;;;;;;;10.35;8.85;;;;;;;;;;5067850;28;20228;-89
2020/12/05 03:48:47;;;;;;;16.00;10.57;;;;;;;;;;5080886;28;20192;-89
2020/12/05 03:51:15;;;;;;;18.85;11.23;;;;;;;;;;5046391;28;20582;-89
2020/12/05 03:53:42;;;;;;;13.55;9.02;;;;;;;;;;5080865;28;20201;-89
2020/12/05 03:56:08;;;;;;;17.05;10.85;;;;;;;;;;5080754;28;20213;-90
2020/12/05 03:58:35;;;;;;;15.18;9.68;;;;;;;;;;5080809;28;20474;-89
2020/12/05 04:01:02;;;;;;;16.20;10.63;;;;;;;;;;5079772;28;20197;-89
2020/12/05 04:03:29;;;;;;;14.38;10.43;;;;;;;;;;5080576;28;20177;-89
2020/12/05 04:05:56;;;;;;;15.30;10.30;;;;;;;;;;5080763;28;20237;-90
2020/12/05 04:08:24;;;;;;;16.08;10.68;;;;;;;;;;5080674;28;20695;-90
2020/12/05 04:10:51;;;;;;;15.10;10.77;;;;;;;;;;5080210;28;20184;-90
2020/12/05 04:13:18;;;;;;;12.73;9.70;;;;;;;;;;5080279;28;20181;-91
2020/12/05 04:15:45;;;;;;;15.32;10.73;;;;;;;;;;5080426;28;20237;-89
2020/12/05 04:18:12;;;;;;;15.23;11.52;;;;;;;;;;5080271;28;20189;-89
2020/12/05 04:20:39;;;;;;;14.75;11.18;;;;;;;;;;5080309;28;20194;-90
2020/12/05 04:23:06;;;;;;;13.90;11.13;;;;;;;;;;5080493;28;20456;-89
2020/12/05 04:25:34;;;;;;;14.55;11.80;;;;;;;;;;5081114;28;20225;-90
2020/12/05 04:28:01;;;;;;;16.27;12.13;;;;;;;;;;5079125;28;20181;-89
2020/12/05 04:30:28;;;;;;;18.20;12.35;;;;;;;;;;5080092;28;20463;-88
2020/12/05 04:32:55;;;;;;;17.00;11.48;;;;;;;;;;5080092;28;20198;-91
2020/12/05 04:35:22;;;;;;;15.23;11.38;;;;;;;;;;5079658;28;20220;-90
2020/12/05 04:37:49;;;;;;;16.80;12.27;;;;;;;;;;5080814;28;20193;-90
2020/12/05 04:40:16;;;;;;;17.83;11.02;;;;;;;;;;5079397;28;20592;-89
2020/12/05 04:42:48;;;;;;;13.38;11.68;;;;;;;;;;5079705;28;20268;-89
2020/12/05 04:45:16;;;;;;;14.63;11.82;;;;;;;;;;5079698;28;20606;-89
2020/12/05 04:47:44;;;;;;;16.17;12.43;;;;;;;;;;5080349;28;20197;-89
2020/12/05 04:50:13;;;;;;;18.30;10.90;;;;;;;;;;5080131;28;20491;-89
2020/12/05 04:52:48;;;;;;;17.50;12.35;;;;;;;;;;5079365;28;20430;-89
2020/12/05 04:55:16;;;;;;;15.55;10.90;;;;;;;;;;5079555;28;20208;-89
2020/12/05 04:57:50;;;;;;;14.48;11.70;;;;;;;;;;5080005;28;20201;-90
2020/12/05 05:00:18;;;;;;;21.40;12.50;;;;;;;;;;5079532;28;20554;-90
2020/12/05 05:02:45;;;;;;;14.27;10.45;;;;;;;;;;5079886;28;20205;-89
2020/12/05 05:05:14;;;;;;;14.07;10.93;;;;;;;;;;5080132;28;20451;-89
2020/12/05 05:07:58;;;;;;;12.57;9.82;;;;;;;;;;5080033;28;20207;-89
2020/12/05 05:10:30;;;;;;;14.60;11.13;;;;;;;;;;5079482;28;20203;-89
2020/12/05 05:13:05;;;;;;;16.95;11.48;;;;;;;;;;5079234;28;20197;-89
2020/12/05 05:15:33;;;;;;;15.30;11.80;;;;;;;;;;5079349;28;20651;-89
2020/12/05 05:18:02;;;;;;;19.00;12.55;;;;;;;;;;5079331;28;20197;-90
2020/12/05 05:20:35;;;;;;;16.50;12.73;;;;;;;;;;5079578;28;20193;-89
2020/12/05 05:23:14;;;;;;;16.02;11.68;;;;;;;;;;5079538;28;20474;-90
2020/12/05 05:25:56;;;;;;;14.50;11.70;;;;;;;;;;5078912;28;20267;-90
2020/12/05 05:28:28;;;;;;;11.60;10.05;;;;;;;;;;5078849;28;20573;-89
2020/12/05 05:31:00;;;;;;;15.00;11.02;;;;;;;;;;5079807;28;20224;-88
2020/12/05 05:33:27;;;;;;;16.52;11.02;;;;;;;;;;5079582;28;20254;-89
2020/12/05 05:35:54;;;;;;;12.18;9.93;;;;;;;;;;5079330;28;20248;-90
2020/12/05 05:38:22;;;;;;;13.93;10.48;;;;;;;;;;5078303;28;20178;-91
2020/12/05 05:40:51;;;;;;;14.80;10.65;;;;;;;;;;5078716;28;20553;-89
2020/12/05 05:43:19;;;;;;;16.63;10.52;;;;;;;;;;5079301;28;20193;-90
2020/12/05 05:45:48;;;;;;;11.77;10.55;;;;;;;;;;5078716;28;20237;-88
2020/12/05 05:48:15;;;;;;;14.05;11.27;;;;;;;;;;5078743;28;20203;-89
2020/12/05 05:50:42;;;;;;;16.80;11.85;;;;;;;;;;5078333;28;20642;-89
2020/12/05 05:53:11;;;;;;;15.23;10.93;;;;;;;;;;5079420;28;20520;-89
2020/12/05 05:55:41;;;;;;;12.73;10.30;;;;;;;;;;5078933;28;20225;-90
2020/12/05 05:58:09;;;;;;;12.23;9.65;;;;;;;;;;5079239;28;20205;-89
2020/12/05 06:00:39;;;;;;;13.80;10.30;;;;;;;;;;5078686;28;20214;-91
2020/12/05 06:03:19;;;;;;;12.70;9.98;;;;;;;;;;5079063;28;20201;-89
2020/12/05 06:05:48;;;;;;;10.93;9.68;;;;;;;;;;5079350;28;20408;-89
2020/12/05 06:08:19;;;;;;;12.93;10.55;;;;;;;;;;5078407;28;20594;-89
2020/12/05 06:10:55;;;;;;;12.85;9.23;;;;;;;;;;5078921;28;20201;-88
2020/12/05 06:13:26;;;;;;;14.88;10.05;;;;;;;;;;5078753;28;20467;-89
2020/12/05 06:15:54;;;;;;;14.25;10.57;;;;;;;;;;5078554;28;20225;-89
2020/12/05 06:18:22;;;;;;;14.52;11.65;;;;;;;;;;5078135;28;20561;-89
2020/12/05 06:20:50;;;;;;;16.48;12.15;;;;;;;;;;5078727;28;20193;-89
2020/12/05 06:23:28;;;;;;;14.40;11.27;;;;;;;;;;5078442;28;20530;-88
2020/12/05 06:25:55;;;;;;;13.38;11.55;;;;;;;;;;5078497;28;20235;-89
2020/12/05 06:28:23;;;;;;;12.23;10.82;;;;;;;;;;5078366;28;20555;-88
2020/12/05 06:30:52;;;;;;;12.10;9.90;;;;;;;;;;5078990;28;20193;-88
2020/12/05 06:33:40;;;;;;;9.73;8.35;;;;;;;;;;5078310;28;20197;-89
2020/12/05 06:36:42;;;;;;;12.90;9.07;;;;;;;;;;5078221;28;20209;-88
2020/12/05 06:39:18;;;;;;;10.15;6.85;;;;;;;;;;5078399;28;20554;-89
2020/12/05 06:41:48;;;;;;;8.75;7.82;;;;;;;;;;5078622;28;20264;-89
2020/12/05 06:44:18;;;;;;;8.23;6.65;;;;;;;;;;5078205;28;20191;-90
2020/12/05 06:47:04;;;;;;;8.02;6.43;;;;;;;;;;5077682;28;20225;-89
2020/12/05 06:49:52;;;;;;;7.85;7.05;;;;;;;;;;5078638;28;20204;-90
2020/12/05 06:52:41;;;;;;;7.47;5.65;;;;;;;;;;5081584;28;20188;-89
2020/12/05 06:55:29;;;;;;;7.07;6.38;;;;;;;;;;5081351;28;20204;-90
2020/12/05 06:58:07;;;;;;;8.63;7.10;;;;;;;;;;5081526;28;20177;-91
2020/12/05 07:00:37;;;;;;;7.82;7.03;;;;;;;;;;5081547;28;20200;-89
2020/12/05 07:03:07;;;;;;;9.45;6.53;;;;;;;;;;5081964;28;20205;-89
2020/12/05 07:05:37;;;;;;;8.63;6.50;;;;;;;;;;5082257;28;20201;-89
2020/12/05 07:08:30;;;;;;;8.55;7.15;;;;;;;;;;5081684;28;20268;-89
2020/12/05 07:11:01;;;;;;;8.35;7.30;;;;;;;;;;5081657;28;20216;-89
2020/12/05 07:13:37;;;;;;;10.55;7.88;;;;;;;;;;5081707;28;20436;-90
2020/12/05 07:16:27;;;;;;;7.60;6.82;;;;;;;;;;5081593;28;20220;-89
2020/12/05 07:18:56;;;;;;;8.48;6.35;;;;;;;;;;5081601;28;20201;-89
2020/12/05 07:21:26;;;;;;;8.00;7.05;;;;;;;;;;5081483;28;20474;-89
2020/12/05 07:23:54;;;;;;;9.90;7.40;;;;;;;;;;5082178;28;20193;-90
2020/12/05 07:26:21;;;;;;;10.18;8.00;;;;;;;;;;5082269;28;20256;-90
2020/12/05 07:28:50;;;;;;;10.05;7.85;;;;;;;;;;5081904;28;20219;-89
2020/12/05 07:31:19;;;;;;;7.93;7.07;;;;;;;;;;5081361;28;20293;-89
2020/12/05 07:33:47;;;;;;;8.05;7.22;;;;;;;;;;5081305;28;20181;-89
2020/12/05 07:36:30;;;;;;;7.38;6.63;;;;;;;;;;5081235;28;20213;-91
2020/12/05 07:39:19;;;;;;;8.88;7.63;;;;;;;;;;5081496;28;20216;-89
2020/12/05 07:41:51;;;;;;;7.10;6.35;;;;;;;;;;5081660;28;20519;-90
2020/12/05 07:44:20;;;;;;;9.90;8.38;;;;;;;;;;5081339;28;20204;-89
2020/12/05 07:46:47;;;;;;;8.98;7.72;;;;;;;;;;5081209;28;20654;-89
2020/12/05 07:49:14;;;;;;;9.85;7.85;;;;;;;;;;5081919;28;20215;-89
2020/12/05 07:51:42;;;;;;;9.13;8.23;;;;;;;;;;5081680;28;20235;-88
2020/12/05 07:54:11;;;;;;;10.65;9.50;;;;;;;;;;5082395;28;20213;-86
2020/12/05 07:56:38;;;;;;;13.52;11.00;;;;;;;;;;5080733;28;20221;-89
2020/12/05 07:59:05;;;;;;;11.27;10.07;;;;;;;;;;5080353;28;20209;-89
2020/12/05 08:01:55;;;;;;;14.55;11.20;;;;;;;;;;5080502;28;20193;-88
2020/12/05 08:04:52;;;;;;;11.88;10.13;;;;;;;;;;5081250;28;20208;-90
2020/12/05 08:07:37;;;;;;;14.52;10.82;;;;;;;;;;5079981;28;20531;-88
2020/12/05 08:10:10;;;;;;;11.07;9.48;;;;;;;;;;5080164;28;20190;-88
2020/12/05 08:13:17;;;;;;;10.95;9.68;;;;;;;;;;5080427;28;20562;-91
2020/12/05 08:15:45;;;;;;;13.07;9.45;;;;;;;;;;5080014;28;20227;-89
2020/12/05 08:18:13;;;;;;;14.98;11.05;;;;;;;;;;5079438;28;20617;-88
2020/12/05 08:20:45;;;;;;;15.50;10.85;;;;;;;;;;5079869;28;20264;-88
2020/12/05 08:23:27;;;;;;;16.13;11.98;;;;;;;;;;5077825;28;20189;-88
2020/12/05 08:26:06;;;;;;;13.40;10.02;;;;;;;;;;5079539;28;20303;-89
2020/12/05 08:28:37;;;;;;;13.88;10.55;;;;;;;;;;5077326;28;20550;-85
2020/12/05 08:31:07;;;;;;;13.18;11.23;;;;;;;;;;5079385;28;20190;-87
2020/12/05 08:33:42;;;;;;;13.52;10.80;;;;;;;;;;5079322;28;20185;-87
2020/12/05 08:36:21;;;;;;;11.55;9.20;;;;;;;;;;5079124;28;20222;-87
2020/12/05 08:38:48;;;;;;;12.68;10.07;;;;;;;;;;5076520;28;20221;-88
2020/12/05 08:41:16;;;;;;;9.80;8.77;;;;;;;;;;5079555;28;20264;-87
2020/12/05 08:43:43;;;;;;;10.63;8.20;;;;;;;;;;5079141;28;20198;-89
2020/12/05 08:46:19;;;;;;;11.88;9.57;;;;;;;;;;5078359;28;20483;-88
2020/12/05 08:48:48;;;;;;;9.02;7.95;;;;;;;;;;5078913;28;20535;-88
2020/12/05 08:51:15;;;;;;;10.18;8.07;;;;;;;;;;5081518;28;20186;-90
2020/12/05 08:53:43;;;;;;;9.18;8.27;;;;;;;;;;5078893;28;20192;-89
2020/12/05 08:56:20;;;;;;;9.13;7.97;;;;;;;;;;5078731;28;20231;-88
2020/12/05 08:58:48;;;;;;;9.90;8.95;;;;;;;;;;5077464;28;20516;-88
2020/12/05 09:01:15;;;;;;;10.43;9.30;;;;;;;;;;5078643;28;20276;-87
2020/12/05 09:03:42;;;;;;;11.02;9.18;;;;;;;;;;5079103;28;20319;-87
2020/12/05 09:06:10;;;;;;;9.80;8.00;;;;;;;;;;5079503;28;20197;-86
2020/12/05 09:08:43;;;;;;;8.68;7.65;;;;;;;;;;5079964;28;20205;-90
2020/12/05 09:11:22;;;;;;;8.80;7.28;;;;;;;;;;5080254;28;20205;-90
2020/12/05 09:13:49;;;;;;;9.63;8.00;;;;;;;;;;5078686;28;20563;-89
2020/12/05 09:16:16;;;;;;;9.43;8.43;;;;;;;;;;5079251;28;20221;-88
2020/12/05 09:18:44;;;;;;;11.25;9.00;;;;;;;;;;5079855;28;20218;-91
2020/12/05 09:21:13;;;;;;;9.95;8.30;;;;;;;;;;5079557;28;20587;-92
2020/12/05 09:23:41;;;;;;;8.75;7.90;;;;;;;;;;5079110;28;20178;-90
2020/12/05 09:26:08;;;;;;;8.57;7.25;;;;;;;;;;5078942;28;20225;-91
2020/12/05 09:28:36;;;;;;;8.07;7.25;;;;;;;;;;5079459;28;20209;-90
2020/12/05 09:31:08;;;;;;;10.38;8.75;;;;;;;;;;5079741;28;20205;-92
2020/12/05 09:33:36;;;;;;;8.50;7.07;;;;;;;;;;5079611;28;20527;-90
2020/12/05 09:36:04;;;;;;;9.20;8.10;;;;;;;;;;5079825;28;20237;-90
2020/12/05 09:38:31;;;;;;;8.30;7.50;;;;;;;;;;5079146;28;20207;-90
2020/12/05 09:40:58;;;;;;;8.30;7.47;;;;;;;;;;5079057;28;20200;-92
2020/12/05 09:43:25;;;;;;;8.18;6.95;;;;;;;;;;5078556;28;20596;-93
2020/12/05 09:45:53;;;;;;;8.68;7.88;;;;;;;;;;5079048;28;20305;-92
2020/12/05 09:48:20;;;;;;;8.38;7.30;;;;;;;;;;5079055;28;20276;-92
2020/12/05 09:50:51;;;;;;;7.90;7.13;;;;;;;;;;5078699;28;20714;-92
2020/12/05 09:54:08;;;;;;;9.52;7.47;;;;;;;;;;5080054;28;20197;-94
2020/12/05 09:56:50;;;;;;;8.50;7.57;;;;;;;;;;5066294;28;20308;-94
2020/12/05 09:59:17;;;;;;;9.30;8.40;;;;;;;;;;5079581;28;20209;-92
2020/12/05 10:01:45;;;;;;;10.18;9.18;;;;;;;;;;5079245;28;20193;-90
2020/12/05 10:04:21;;;;;;;9.13;8.23;;;;;;;;;;5079683;28;20201;-95
2020/12/05 10:07:09;;;;;;;8.60;7.80;;;;;;;;;;5081326;28;20227;-94
2020/12/05 10:09:36;;;;;;;8.43;7.63;;;;;;;;;;5077863;28;20201;-94
2020/12/05 10:15:54;;;;;;;9.32;8.43;;;;;;;;;;5043158;28;20202;-95
2020/12/05 10:18:22;;;;;;;12.70;9.15;;;;;;;;;;5038016;28;20191;-95
2020/12/05 10:20:49;;;;;;;12.48;10.23;;;;;;;;;;5038768;28;20305;-91
2020/12/05 10:23:19;;;;;;;11.02;9.93;;;;;;;;;;5037087;28;20197;-94
2020/12/05 10:25:46;;;;;;;11.13;8.95;;;;;;;;;;5066322;28;20237;-91
2020/12/05 10:28:13;;;;;;;14.80;11.30;;;;;;;;;;5082997;28;20570;-92
2020/12/05 10:30:40;;;;;;;10.77;9.00;;;;;;;;;;5082798;28;20513;-89
2020/12/05 10:33:08;;;;;;;11.35;9.23;;;;;;;;;;5082917;28;20209;-93
2020/12/05 10:35:36;;;;;;;11.18;8.80;;;;;;;;;;5083213;28;20512;-94
2020/12/05 10:38:29;;;;;;;8.48;7.53;;;;;;;;;;5082887;28;20227;-94
2020/12/05 10:40:56;;;;;;;8.35;7.55;;;;;;;;;;5082746;28;20276;-94
2020/12/05 10:43:27;;;;;;;10.13;8.13;;;;;;;;;;5085069;28;20197;-94
2020/12/05 10:45:54;;;;;;;10.15;9.00;;;;;;;;;;5082643;28;20229;-93
2020/12/05 10:48:24;;;;;;;8.70;7.78;;;;;;;;;;5083939;28;20189;-94
2020/12/05 10:51:14;;;;;;;10.23;8.77;;;;;;;;;;5082224;28;20207;-95
2020/12/05 10:53:41;;;;;;;10.05;8.90;;;;;;;;;;5082516;28;20205;-94
2020/12/05 10:56:08;;;;;;;9.90;8.82;;;;;;;;;;5080330;28;20363;-94
2020/12/05 10:58:35;;;;;;;12.55;10.57;;;;;;;;;;5081732;28;20227;-94
2020/12/05 11:01:02;;;;;;;12.27;10.45;;;;;;;;;;5082400;28;20204;-94
2020/12/05 11:03:29;;;;;;;14.05;11.13;;;;;;;;;;5083417;28;20189;-94
2020/12/05 11:05:56;;;;;;;14.73;11.13;;;;;;;;;;5081761;28;20193;-94
2020/12/05 11:08:24;;;;;;;13.13;11.18;;;;;;;;;;5082202;28;20197;-95
2020/12/05 11:10:51;;;;;;;11.25;9.65;;;;;;;;;;5081862;28;20616;-93
2020/12/05 11:13:18;;;;;;;15.95;12.68;;;;;;;;;;5081390;28;20185;-93
2020/12/05 11:15:45;;;;;;;15.52;11.50;;;;;;;;;;5082392;28;20280;-94
2020/12/05 11:18:12;;;;;;;14.65;11.07;;;;;;;;;;5082293;28;20259;-95
2020/12/05 11:20:40;;;;;;;13.57;10.48;;;;;;;;;;5083728;28;20227;-95
2020/12/05 11:23:07;;;;;;;13.52;10.98;;;;;;;;;;5082513;28;20205;-93
2020/12/05 11:25:35;;;;;;;17.70;12.98;;;;;;;;;;5082465;28;20221;-94
2020/12/05 11:28:02;;;;;;;14.45;11.32;;;;;;;;;;5083016;28;20216;-94
2020/12/05 11:30:29;;;;;;;14.93;11.15;;;;;;;;;;5084066;28;20554;-95
2020/12/05 11:32:57;;;;;;;13.85;11.77;;;;;;;;;;5088269;28;20231;-94
2020/12/05 11:35:25;;;;;;;18.88;13.85;;;;;;;;;;5068278;28;20200;-94
2020/12/05 11:37:52;;;;;;;15.65;11.73;;;;;;;;;;5087536;28;20487;-94
2020/12/05 11:40:19;;;;;;;15.88;10.27;;;;;;;;;;5082382;28;20233;-94
2020/12/05 11:43:06;;;;;;;13.05;10.85;;;;;;;;;;5082549;28;20577;-95
2020/12/05 11:45:33;;;;;;;15.50;11.35;;;;;;;;;;5081404;28;20244;-94
2020/12/05 11:48:01;;;;;;;15.88;12.93;;;;;;;;;;5082845;28;20280;-94
2020/12/05 11:50:34;;;;;;;17.00;12.05;;;;;;;;;;5087096;28;20205;-93
2020/12/05 11:53:02;;;;;;;18.75;12.80;;;;;;;;;;5050654;28;20219;-95
2020/12/05 11:55:29;;;;;;;16.85;12.32;;;;;;;;;;5084155;28;20261;-94
2020/12/05 12:15:29;;;;;;;19.45;13.70;;;;;;;;;;4727157;30;20204;-92
2020/12/05 12:18:42;;;;;;;18.85;14.40;;;;;;;;;;4744307;30;20236;-93
2020/12/05 12:21:56;;;;;;;18.25;14.07;;;;;;;;;;4744219;30;20224;-92
2020/12/05 12:25:08;;;;;;;17.75;13.45;;;;;;;;;;4742041;30;20316;-94
2020/12/05 12:31:26;;;;;;;16.88;12.20;;;;;;;;;;4711191;30;20232;-94
2020/12/05 12:33:54;;;;;;;18.20;12.77;;;;;;;;;;4781108;30;20231;-94
2020/12/05 12:37:03;;;;;;;19.85;14.35;;;;;;;;;;4819537;29;20209;-95
2020/12/05 12:39:51;;;;;;;20.80;14.05;;;;;;;;;;4884418;29;20478;-93
2020/12/05 12:42:18;;;;;;;16.98;13.00;;;;;;;;;;4876574;29;20218;-90
2020/12/05 12:44:45;;;;;;;20.98;13.93;;;;;;;;;;4907557;28;20199;-91
2020/12/05 12:47:35;;;;;;;15.98;12.25;;;;;;;;;;4999133;28;20284;-90
2020/12/05 12:50:06;;;;;;;20.00;13.95;;;;;;;;;;4999939;28;20227;-90
2020/12/05 12:52:33;;;;;;;17.98;13.27;;;;;;;;;;4999782;28;20204;-93
2020/12/05 12:55:00;;;;;;;15.18;11.80;;;;;;;;;;4999791;28;20195;-92
2020/12/05 12:57:30;;;;;;;16.08;11.55;;;;;;;;;;4999171;28;20224;-90
2020/12/05 12:59:57;;;;;;;17.55;13.65;;;;;;;;;;5034577;28;20194;-94
2020/12/05 13:02:24;;;;;;;16.10;12.40;;;;;;;;;;5034664;28;20536;-90
2020/12/05 13:04:51;;;;;;;16.67;12.18;;;;;;;;;;5038172;28;20175;-93
2020/12/05 13:07:19;;;;;;;14.52;11.60;;;;;;;;;;5078533;28;20295;-90
2020/12/05 13:09:46;;;;;;;15.93;11.18;;;;;;;;;;5099312;28;20287;-91
2020/12/05 13:12:13;;;;;;;14.48;11.77;;;;;;;;;;5098869;28;20268;-92
2020/12/05 13:14:40;;;;;;;16.13;12.05;;;;;;;;;;5099363;28;20187;-91
2020/12/05 13:17:07;;;;;;;16.17;12.82;;;;;;;;;;5099471;28;20172;-94
2020/12/05 13:19:34;;;;;;;16.88;13.18;;;;;;;;;;5097211;28;20193;-85
2020/12/05 13:22:01;;;;;;;19.13;15.07;;;;;;;;;;5077857;28;20220;-86
2020/12/05 13:24:30;;;;;;;21.45;16.48;;;;;;;;;;5079040;28;20181;-91
2020/12/05 13:26:56;;;;;;;21.25;15.13;;;;;;;;;;5079192;28;20229;-86
2020/12/05 13:29:23;;;;;;;18.33;14.63;;;;;;;;;;5078928;28;20197;-88
2020/12/05 13:31:51;;;;;;;17.85;14.73;;;;;;;;;;5077873;28;20562;-88
2020/12/05 13:34:17;;;;;;;17.63;14.57;;;;;;;;;;5078300;28;20189;-88
2020/12/05 13:36:45;;;;;;;17.88;14.05;;;;;;;;;;5072972;28;20212;-88
2020/12/05 13:39:12;;;;;;;22.45;17.83;;;;;;;;;;5077599;28;20601;-88
2020/12/05 13:41:41;;;;;;;17.42;14.50;;;;;;;;;;5078633;28;20185;-93
2020/12/05 13:44:08;;;;;;;22.40;14.68;;;;;;;;;;5078743;28;20195;-89
2020/12/05 13:46:35;;;;;;;15.88;13.30;;;;;;;;;;5078685;28;20225;-90
2020/12/05 13:49:02;;;;;;;17.33;13.27;;;;;;;;;;5078709;28;20192;-89
2020/12/05 13:51:30;;;;;;;16.95;13.98;;;;;;;;;;5078128;28;20495;-91
2020/12/05 13:53:58;;;;;;;17.20;13.68;;;;;;;;;;5078658;28;20280;-91
2020/12/05 13:56:26;;;;;;;16.38;12.10;;;;;;;;;;5078533;28;20209;-92
2020/12/05 13:58:54;;;;;;;16.65;13.27;;;;;;;;;;5078230;28;20850;-94
2020/12/05 14:01:21;;;;;;;15.95;12.93;;;;;;;;;;5079886;28;20181;-94
2020/12/05 14:03:48;;;;;;;17.23;13.18;;;;;;;;;;5078516;28;20267;-92
2020/12/05 14:06:16;;;;;;;14.70;12.07;;;;;;;;;;5078932;28;20479;-94
2020/12/05 14:08:43;;;;;;;17.27;13.00;;;;;;;;;;5079501;28;20280;-90
2020/12/05 14:11:13;;;;;;;16.00;13.73;;;;;;;;;;5079303;28;20198;-94
2020/12/05 14:13:40;;;;;;;16.33;13.50;;;;;;;;;;5079745;28;20212;-91
2020/12/05 14:16:08;;;;;;;20.25;15.65;;;;;;;;;;5079109;28;20182;-89
2020/12/05 14:18:39;;;;;;;18.85;14.85;;;;;;;;;;5080528;28;20219;-89
2020/12/05 14:21:06;;;;;;;17.52;14.27;;;;;;;;;;5078399;28;20173;-91
2020/12/05 14:23:33;;;;;;;15.68;13.40;;;;;;;;;;5078378;28;20192;-92
2020/12/05 14:26:00;;;;;;;21.27;15.38;;;;;;;;;;5078832;28;20612;-90
2020/12/05 14:28:27;;;;;;;21.20;13.95;;;;;;;;;;5078505;28;20189;-88
2020/12/05 14:30:54;;;;;;;17.48;14.35;;;;;;;;;;5082692;28;20217;-90
2020/12/05 14:33:22;;;;;;;16.52;14.13;;;;;;;;;;5077919;28;20186;-90
2020/12/05 14:35:49;;;;;;;21.40;13.77;;;;;;;;;;5082355;28;20213;-92
2020/12/05 14:38:16;;;;;;;18.73;14.35;;;;;;;;;;5078457;28;20223;-89
2020/12/05 14:40:43;;;;;;;17.90;14.50;;;;;;;;;;5071633;28;20181;-90
2020/12/05 14:43:10;;;;;;;17.80;14.48;;;;;;;;;;5077431;28;20185;-91
2020/12/05 14:45:37;;;;;;;19.15;13.30;;;;;;;;;;5077961;28;20307;-93
2020/12/05 14:48:06;;;;;;;17.92;13.38;;;;;;;;;;5077810;28;20280;-92
2020/12/05 14:50:34;;;;;;;15.27;12.45;;;;;;;;;;5077739;28;20207;-92
2020/12/05 14:53:01;;;;;;;17.80;13.82;;;;;;;;;;5077233;28;20181;-91
2020/12/05 14:55:30;;;;;;;16.50;13.80;;;;;;;;;;5077668;28;20260;-91
2020/12/05 14:57:58;;;;;;;19.13;13.05;;;;;;;;;;5077928;28;20207;-93
2020/12/05 15:00:25;;;;;;;15.35;11.82;;;;;;;;;;5077811;28;20463;-90
2020/12/05 15:02:51;;;;;;;15.75;12.95;;;;;;;;;;5042662;28;20193;-91
2020/12/05 15:05:18;;;;;;;15.75;12.57;;;;;;;;;;5077778;28;20182;-91
2020/12/05 15:07:47;;;;;;;16.38;13.07;;;;;;;;;;5077250;28;20207;-90
2020/12/05 15:10:14;;;;;;;17.58;13.00;;;;;;;;;;5077621;28;20193;-89